sensor_id;sensor_type;location;lat;lon;timestamp;pressure;altitude;pressure_sealevel;temperature;humidity
41632;BME280;37452;51.938;4.624;2023-04-27T00:00:10;78464.41;;;-142.75;100.00
41632;BME280;37452;51.938;4.624;2023-04-27T00:02:36;78474.25;;;-142.75;100.00
41632;BME280;37452;51.938;4.624;2023-04-27T00:05:02;78474.25;;;-142.75;100.00
41632;BME280;37452;51.938;4.624;2023-04-27T00:07:27;78476.22;;;-142.75;100.00
41632;BME280;37452;51.938;4.624;2023-04-27T00:09:53;78488.03;;;-142.75;100.00
41632;BME280;37452;51.938;4.624;2023-04-27T00:12:18;78490.00;;;-142.75;100.00
41632;BME280;37452;51.938;4.624;2023-04-27T00:14:43;78488.03;;;-142.75;100.00
41632;BME280;37452;51.938;4.624;2023-04-27T00:17:08;78507.75;;;-142.75;100.00
41632;BME280;37452;51.938;4.624;2023-04-27T00:19:34;78511.69;;;-142.75;100.00
41632;BME280;37452;51.938;4.624;2023-04-27T00:21:59;78505.78;;;-142.75;100.00
41632;BME280;37452;51.938;4.624;2023-04-27T00:24:24;78491.97;;;-142.75;100.00
41632;BME280;37452;51.938;4.624;2023-04-27T00:26:49;78505.78;;;-142.75;100.00
41632;BME280;37452;51.938;4.624;2023-04-27T00:29:17;78495.94;;;-142.75;100.00
41632;BME280;37452;51.938;4.624;2023-04-27T00:31:42;78515.63;;;-142.75;100.00
41632;BME280;37452;51.938;4.624;2023-04-27T00:34:07;78523.50;;;-142.75;100.00
41632;BME280;37452;51.938;4.624;2023-04-27T00:36:33;78525.47;;;-142.75;100.00
41632;BME280;37452;51.938;4.624;2023-04-27T00:38:59;78525.47;;;-142.75;100.00
41632;BME280;37452;51.938;4.624;2023-04-27T00:41:24;78531.38;;;-142.75;100.00
41632;BME280;37452;51.938;4.624;2023-04-27T00:43:49;78513.66;;;-142.75;100.00
41632;BME280;37452;51.938;4.624;2023-04-27T00:46:14;78491.97;;;-142.75;100.00
41632;BME280;37452;51.938;4.624;2023-04-27T00:48:40;78493.97;;;-142.75;100.00
41632;BME280;37452;51.938;4.624;2023-04-27T00:51:06;78501.84;;;-142.75;100.00
41632;BME280;37452;51.938;4.624;2023-04-27T00:53:31;78503.81;;;-142.75;100.00
41632;BME280;37452;51.938;4.624;2023-04-27T00:55:57;78507.75;;;-142.75;100.00
41632;BME280;37452;51.938;4.624;2023-04-27T00:58:22;78497.91;;;-142.75;100.00
41632;BME280;37452;51.938;4.624;2023-04-27T01:00:47;78505.78;;;-142.75;100.00
41632;BME280;37452;51.938;4.624;2023-04-27T01:03:13;78507.75;;;-142.75;100.00
41632;BME280;37452;51.938;4.624;2023-04-27T01:05:38;78507.75;;;-142.75;100.00
41632;BME280;37452;51.938;4.624;2023-04-27T01:08:04;78503.81;;;-142.75;100.00
41632;BME280;37452;51.938;4.624;2023-04-27T01:10:29;78515.63;;;-142.75;100.00
41632;BME280;37452;51.938;4.624;2023-04-27T01:12:55;78491.97;;;-142.75;100.00
41632;BME280;37452;51.938;4.624;2023-04-27T01:15:20;78490.00;;;-142.75;100.00
41632;BME280;37452;51.938;4.624;2023-04-27T01:17:45;78478.19;;;-142.75;100.00
41632;BME280;37452;51.938;4.624;2023-04-27T01:20:11;78474.25;;;-142.75;100.00
41632;BME280;37452;51.938;4.624;2023-04-27T01:22:36;78460.47;;;-142.75;100.00
41632;BME280;37452;51.938;4.624;2023-04-27T01:25:02;78456.53;;;-142.75;100.00
41632;BME280;37452;51.938;4.624;2023-04-27T01:27:27;78474.25;;;-142.75;100.00
41632;BME280;37452;51.938;4.624;2023-04-27T01:29:52;78499.88;;;-142.75;100.00
41632;BME280;37452;51.938;4.624;2023-04-27T01:32:17;78486.06;;;-142.75;100.00
41632;BME280;37452;51.938;4.624;2023-04-27T01:34:43;78470.31;;;-142.75;100.00
41632;BME280;37452;51.938;4.624;2023-04-27T01:37:08;78484.09;;;-142.75;100.00
41632;BME280;37452;51.938;4.624;2023-04-27T01:39:33;78507.75;;;-142.75;100.00
41632;BME280;37452;51.938;4.624;2023-04-27T01:42:02;78495.94;;;-142.75;100.00
41632;BME280;37452;51.938;4.624;2023-04-27T01:44:27;78499.88;;;-142.75;100.00
41632;BME280;37452;51.938;4.624;2023-04-27T01:46:53;78486.06;;;-142.75;100.00
41632;BME280;37452;51.938;4.624;2023-04-27T01:49:18;78486.06;;;-142.75;100.00
41632;BME280;37452;51.938;4.624;2023-04-27T01:51:43;78482.13;;;-142.75;100.00
41632;BME280;37452;51.938;4.624;2023-04-27T01:54:08;78486.06;;;-142.75;100.00
41632;BME280;37452;51.938;4.624;2023-04-27T01:56:33;78495.94;;;-142.75;100.00
41632;BME280;37452;51.938;4.624;2023-04-27T01:58:59;78499.88;;;-142.75;100.00
41632;BME280;37452;51.938;4.624;2023-04-27T02:01:24;78501.84;;;-142.75;100.00
41632;BME280;37452;51.938;4.624;2023-04-27T02:03:49;78491.97;;;-142.75;100.00
41632;BME280;37452;51.938;4.624;2023-04-27T02:06:15;78499.88;;;-142.75;100.00
41632;BME280;37452;51.938;4.624;2023-04-27T02:08:40;78507.75;;;-142.75;100.00
41632;BME280;37452;51.938;4.624;2023-04-27T02:11:05;78515.63;;;-142.75;100.00
41632;BME280;37452;51.938;4.624;2023-04-27T02:13:30;78535.31;;;-142.75;100.00
41632;BME280;37452;51.938;4.624;2023-04-27T02:15:55;78533.34;;;-142.75;100.00
41632;BME280;37452;51.938;4.624;2023-04-27T02:18:21;78521.53;;;-142.75;100.00
41632;BME280;37452;51.938;4.624;2023-04-27T02:20:46;78537.28;;;-142.75;100.00
41632;BME280;37452;51.938;4.624;2023-04-27T02:23:11;78547.13;;;-142.75;100.00
41632;BME280;37452;51.938;4.624;2023-04-27T02:25:37;78543.19;;;-142.75;100.00
41632;BME280;37452;51.938;4.624;2023-04-27T02:28:02;78549.09;;;-142.75;100.00
41632;BME280;37452;51.938;4.624;2023-04-27T02:30:28;78553.03;;;-142.75;100.00
41632;BME280;37452;51.938;4.624;2023-04-27T02:32:54;78543.19;;;-142.75;100.00
41632;BME280;37452;51.938;4.624;2023-04-27T02:35:19;78558.94;;;-142.75;100.00
41632;BME280;37452;51.938;4.624;2023-04-27T02:37:44;78558.94;;;-142.75;100.00
41632;BME280;37452;51.938;4.624;2023-04-27T02:40:10;78558.94;;;-142.75;100.00
41632;BME280;37452;51.938;4.624;2023-04-27T02:42:35;78566.81;;;-142.75;100.00
41632;BME280;37452;51.938;4.624;2023-04-27T02:45:03;78576.66;;;-142.75;100.00
41632;BME280;37452;51.938;4.624;2023-04-27T02:47:28;78586.53;;;-142.75;100.00
41632;BME280;37452;51.938;4.624;2023-04-27T02:49:53;78562.88;;;-142.75;100.00
41632;BME280;37452;51.938;4.624;2023-04-27T02:52:18;78562.88;;;-142.75;100.00
41632;BME280;37452;51.938;4.624;2023-04-27T02:54:43;78578.63;;;-142.75;100.00
41632;BME280;37452;51.938;4.624;2023-04-27T02:57:09;78562.88;;;-142.75;100.00
41632;BME280;37452;51.938;4.624;2023-04-27T02:59:34;78547.13;;;-142.75;100.00
41632;BME280;37452;51.938;4.624;2023-04-27T03:02:00;78558.94;;;-142.75;100.00
41632;BME280;37452;51.938;4.624;2023-04-27T03:04:25;78576.66;;;-142.75;100.00
41632;BME280;37452;51.938;4.624;2023-04-27T03:06:51;78582.59;;;-142.75;100.00
41632;BME280;37452;51.938;4.624;2023-04-27T03:09:17;78576.66;;;-142.75;100.00
41632;BME280;37452;51.938;4.624;2023-04-27T03:11:42;78562.88;;;-142.75;100.00
41632;BME280;37452;51.938;4.624;2023-04-27T03:14:07;78555.00;;;-142.75;100.00
41632;BME280;37452;51.938;4.624;2023-04-27T03:16:32;78562.88;;;-142.75;100.00
41632;BME280;37452;51.938;4.624;2023-04-27T03:18:58;78564.84;;;-142.75;100.00
41632;BME280;37452;51.938;4.624;2023-04-27T03:21:23;78562.88;;;-142.75;100.00
41632;BME280;37452;51.938;4.624;2023-04-27T03:23:48;78562.88;;;-142.75;100.00
41632;BME280;37452;51.938;4.624;2023-04-27T03:26:13;78568.78;;;-142.75;100.00
41632;BME280;37452;51.938;4.624;2023-04-27T03:28:39;78588.50;;;-142.75;100.00
41632;BME280;37452;51.938;4.624;2023-04-27T03:31:08;78586.53;;;-142.75;100.00
41632;BME280;37452;51.938;4.624;2023-04-27T03:33:37;78582.59;;;-142.75;100.00
41632;BME280;37452;51.938;4.624;2023-04-27T03:36:03;78608.19;;;-142.75;100.00
41632;BME280;37452;51.938;4.624;2023-04-27T03:38:29;78625.91;;;-142.75;100.00
41632;BME280;37452;51.938;4.624;2023-04-27T03:40:54;78625.91;;;-142.75;100.00
41632;BME280;37452;51.938;4.624;2023-04-27T03:43:20;78625.91;;;-142.75;100.00
41632;BME280;37452;51.938;4.624;2023-04-27T03:45:46;78612.13;;;-142.75;100.00
41632;BME280;37452;51.938;4.624;2023-04-27T03:48:11;78606.22;;;-142.75;100.00
41632;BME280;37452;51.938;4.624;2023-04-27T03:50:36;78604.25;;;-142.75;100.00
41632;BME280;37452;51.938;4.624;2023-04-27T03:53:01;78612.13;;;-142.75;100.00
41632;BME280;37452;51.938;4.624;2023-04-27T03:55:27;78625.91;;;-142.75;100.00
41632;BME280;37452;51.938;4.624;2023-04-27T03:57:52;78629.84;;;-142.75;100.00
41632;BME280;37452;51.938;4.624;2023-04-27T04:00:17;78614.09;;;-142.75;100.00
41632;BME280;37452;51.938;4.624;2023-04-27T04:02:43;78618.03;;;-142.75;100.00
41632;BME280;37452;51.938;4.624;2023-04-27T04:05:08;78620.00;;;-142.75;100.00
41632;BME280;37452;51.938;4.624;2023-04-27T04:07:33;78641.66;;;-142.75;100.00
41632;BME280;37452;51.938;4.624;2023-04-27T04:09:59;78629.84;;;-142.75;100.00
41632;BME280;37452;51.938;4.624;2023-04-27T04:12:24;78625.91;;;-142.75;100.00
41632;BME280;37452;51.938;4.624;2023-04-27T04:14:49;78625.91;;;-142.75;100.00
41632;BME280;37452;51.938;4.624;2023-04-27T04:17:15;78618.03;;;-142.75;100.00
41632;BME280;37452;51.938;4.624;2023-04-27T04:19:40;78623.94;;;-142.75;100.00
41632;BME280;37452;51.938;4.624;2023-04-27T04:22:06;78631.81;;;-142.75;100.00
41632;BME280;37452;51.938;4.624;2023-04-27T04:24:31;78635.75;;;-142.75;100.00
41632;BME280;37452;51.938;4.624;2023-04-27T04:26:56;78620.00;;;-142.75;100.00
41632;BME280;37452;51.938;4.624;2023-04-27T04:29:22;78616.06;;;-142.75;100.00
41632;BME280;37452;51.938;4.624;2023-04-27T04:31:48;78602.28;;;-142.75;100.00
41632;BME280;37452;51.938;4.624;2023-04-27T04:34:13;78625.91;;;-142.75;100.00
41632;BME280;37452;51.938;4.624;2023-04-27T04:36:38;78623.94;;;-142.75;100.00
41632;BME280;37452;51.938;4.624;2023-04-27T04:39:04;78657.41;;;-142.75;100.00
41632;BME280;37452;51.938;4.624;2023-04-27T04:41:30;78657.41;;;-142.75;100.00
41632;BME280;37452;51.938;4.624;2023-04-27T04:43:56;78655.44;;;-142.75;100.00
41632;BME280;37452;51.938;4.624;2023-04-27T04:46:21;78647.56;;;-142.75;100.00
41632;BME280;37452;51.938;4.624;2023-04-27T04:48:48;78653.47;;;-142.75;100.00
41632;BME280;37452;51.938;4.624;2023-04-27T04:51:13;78653.47;;;-142.75;100.00
41632;BME280;37452;51.938;4.624;2023-04-27T04:53:39;78661.34;;;-142.75;100.00
41632;BME280;37452;51.938;4.624;2023-04-27T04:56:07;78655.44;;;-142.75;100.00
41632;BME280;37452;51.938;4.624;2023-04-27T04:58:32;78655.44;;;-142.75;100.00
41632;BME280;37452;51.938;4.624;2023-04-27T05:00:58;78653.47;;;-142.75;100.00
41632;BME280;37452;51.938;4.624;2023-04-27T05:03:23;78645.59;;;-142.75;100.00
41632;BME280;37452;51.938;4.624;2023-04-27T05:05:48;78635.75;;;-142.75;100.00
41632;BME280;37452;51.938;4.624;2023-04-27T05:08:13;78639.69;;;-142.75;100.00
41632;BME280;37452;51.938;4.624;2023-04-27T05:10:39;78633.78;;;-142.75;100.00
41632;BME280;37452;51.938;4.624;2023-04-27T05:13:04;78637.72;;;-142.75;100.00
41632;BME280;37452;51.938;4.624;2023-04-27T05:15:29;78629.84;;;-142.75;100.00
41632;BME280;37452;51.938;4.624;2023-04-27T05:17:55;78618.03;;;-142.75;100.00
41632;BME280;37452;51.938;4.624;2023-04-27T05:20:20;78604.25;;;-142.75;100.00
41632;BME280;37452;51.938;4.624;2023-04-27T05:22:45;78592.44;;;-142.75;100.00
41632;BME280;37452;51.938;4.624;2023-04-27T05:25:10;78574.69;;;-142.75;100.00
41632;BME280;37452;51.938;4.624;2023-04-27T05:27:36;78574.69;;;-142.75;100.00
41632;BME280;37452;51.938;4.624;2023-04-27T05:30:01;78570.75;;;-142.75;100.00
41632;BME280;37452;51.938;4.624;2023-04-27T05:32:27;78551.06;;;-142.75;100.00
41632;BME280;37452;51.938;4.624;2023-04-27T05:34:52;78562.88;;;-142.75;100.00
41632;BME280;37452;51.938;4.624;2023-04-27T05:37:17;78578.63;;;-142.75;100.00
41632;BME280;37452;51.938;4.624;2023-04-27T05:39:42;78570.75;;;-142.75;100.00
41632;BME280;37452;51.938;4.624;2023-04-27T05:42:07;78574.69;;;-142.75;100.00
41632;BME280;37452;51.938;4.624;2023-04-27T05:44:33;78566.81;;;-142.75;100.00
41632;BME280;37452;51.938;4.624;2023-04-27T05:46:58;78580.59;;;-142.75;100.00
41632;BME280;37452;51.938;4.624;2023-04-27T05:49:23;78578.63;;;-142.75;100.00
41632;BME280;37452;51.938;4.624;2023-04-27T05:51:49;78568.78;;;-142.75;100.00
41632;BME280;37452;51.938;4.624;2023-04-27T05:54:14;78551.06;;;-142.75;100.00
41632;BME280;37452;51.938;4.624;2023-04-27T05:56:39;78525.47;;;-142.75;100.00
41632;BME280;37452;51.938;4.624;2023-04-27T05:59:05;78503.81;;;-142.75;100.00
41632;BME280;37452;51.938;4.624;2023-04-27T06:01:30;78472.28;;;-142.75;100.00
41632;BME280;37452;51.938;4.624;2023-04-27T06:03:55;78450.63;;;-142.75;100.00
41632;BME280;37452;51.938;4.624;2023-04-27T06:06:25;78436.84;;;-142.75;100.00
41632;BME280;37452;51.938;4.624;2023-04-27T06:08:50;78401.38;;;-142.75;100.00
41632;BME280;37452;51.938;4.624;2023-04-27T06:11:15;78385.63;;;-142.75;100.00
41632;BME280;37452;51.938;4.624;2023-04-27T06:13:41;78373.81;;;-142.75;100.00
41632;BME280;37452;51.938;4.624;2023-04-27T06:16:06;78350.19;;;-142.75;100.00
41632;BME280;37452;51.938;4.624;2023-04-27T06:18:32;78334.44;;;-142.75;100.00
41632;BME280;37452;51.938;4.624;2023-04-27T06:20:57;78350.19;;;-142.75;100.00
41632;BME280;37452;51.938;4.624;2023-04-27T06:23:23;78338.38;;;-142.75;100.00
41632;BME280;37452;51.938;4.624;2023-04-27T06:25:48;78320.66;;;-142.75;100.00
41632;BME280;37452;51.938;4.624;2023-04-27T06:28:13;78304.91;;;-142.75;100.00
41632;BME280;37452;51.938;4.624;2023-04-27T06:30:38;78320.66;;;-142.75;100.00
41632;BME280;37452;51.938;4.624;2023-04-27T06:33:04;78334.44;;;-142.75;100.00
41632;BME280;37452;51.938;4.624;2023-04-27T06:35:29;78316.72;;;-142.75;100.00
41632;BME280;37452;51.938;4.624;2023-04-27T06:37:54;78330.50;;;-142.75;100.00
41632;BME280;37452;51.938;4.624;2023-04-27T06:40:22;78320.66;;;-142.75;100.00
41632;BME280;37452;51.938;4.624;2023-04-27T06:42:48;78302.94;;;-142.75;100.00
41632;BME280;37452;51.938;4.624;2023-04-27T06:45:13;78310.81;;;-142.75;100.00
41632;BME280;37452;51.938;4.624;2023-04-27T06:47:38;78297.00;;;-142.75;100.00
41632;BME280;37452;51.938;4.624;2023-04-27T06:50:03;78269.44;;;-142.75;100.00
41632;BME280;37452;51.938;4.624;2023-04-27T06:52:30;78255.66;;;-142.75;100.00
41632;BME280;37452;51.938;4.624;2023-04-27T06:54:55;78249.75;;;-142.75;100.00
41632;BME280;37452;51.938;4.624;2023-04-27T06:57:21;78216.28;;;-142.75;100.00
41632;BME280;37452;51.938;4.624;2023-04-27T06:59:47;78216.28;;;-142.75;100.00
41632;BME280;37452;51.938;4.624;2023-04-27T07:02:12;78206.44;;;-142.75;100.00
41632;BME280;37452;51.938;4.624;2023-04-27T07:04:37;78192.66;;;-142.75;100.00
41632;BME280;37452;51.938;4.624;2023-04-27T07:07:02;78192.66;;;-142.75;100.00
41632;BME280;37452;51.938;4.624;2023-04-27T07:09:27;78204.47;;;-142.75;100.00
41632;BME280;37452;51.938;4.624;2023-04-27T07:11:55;78165.06;;;-142.75;100.00
41632;BME280;37452;51.938;4.624;2023-04-27T07:14:22;78151.28;;;-142.75;100.00
41632;BME280;37452;51.938;4.624;2023-04-27T07:16:48;78137.50;;;-142.75;99.40
41632;BME280;37452;51.938;4.624;2023-04-27T07:19:13;78141.44;;;-142.75;98.94
41632;BME280;37452;51.938;4.624;2023-04-27T07:21:38;78106.00;;;-142.75;99.32
41632;BME280;37452;51.938;4.624;2023-04-27T07:24:03;78094.19;;;-142.75;96.39
41632;BME280;37452;51.938;4.624;2023-04-27T07:26:29;78106.00;;;-142.75;95.62
41632;BME280;37452;51.938;4.624;2023-04-27T07:28:56;78119.78;;;-142.75;94.45
41632;BME280;37452;51.938;4.624;2023-04-27T07:31:21;78137.50;;;-142.75;95.13
41632;BME280;37452;51.938;4.624;2023-04-27T07:33:46;78113.88;;;-142.75;96.53
41632;BME280;37452;51.938;4.624;2023-04-27T07:36:11;78070.56;;;-142.75;96.23
41632;BME280;37452;51.938;4.624;2023-04-27T07:38:37;78056.78;;;-142.75;96.32
41632;BME280;37452;51.938;4.624;2023-04-27T07:41:02;78068.59;;;-142.75;94.42
41632;BME280;37452;51.938;4.624;2023-04-27T07:43:29;78050.84;;;-142.75;94.56
41632;BME280;37452;51.938;4.624;2023-04-27T07:45:56;78056.78;;;-142.75;91.91
41632;BME280;37452;51.938;4.624;2023-04-27T07:48:22;78035.09;;;-142.75;93.02
41632;BME280;37452;51.938;4.624;2023-04-27T07:50:48;78013.44;;;-142.75;91.99
41632;BME280;37452;51.938;4.624;2023-04-27T07:53:13;78029.19;;;-142.75;92.45
41632;BME280;37452;51.938;4.624;2023-04-27T07:55:40;78023.28;;;-142.75;91.30
41632;BME280;37452;51.938;4.624;2023-04-27T07:58:08;78046.91;;;-142.75;89.36
41632;BME280;37452;51.938;4.624;2023-04-27T08:00:36;78042.97;;;-142.75;90.92
41632;BME280;37452;51.938;4.624;2023-04-27T08:03:02;78005.56;;;-142.75;93.50
41632;BME280;37452;51.938;4.624;2023-04-27T08:05:27;77976.03;;;-142.75;90.03
41632;BME280;37452;51.938;4.624;2023-04-27T08:07:52;77956.34;;;-142.75;90.25
41632;BME280;37452;51.938;4.624;2023-04-27T08:10:18;77915.00;;;-142.75;89.29
41632;BME280;37452;51.938;4.624;2023-04-27T08:12:43;77924.84;;;-142.75;88.95
41632;BME280;37452;51.938;4.624;2023-04-27T08:15:09;77905.13;;;-142.75;88.93
41632;BME280;37452;51.938;4.624;2023-04-27T08:17:34;77916.97;;;-142.75;87.08
41632;BME280;37452;51.938;4.624;2023-04-27T08:20:01;77916.97;;;-142.75;88.18
41632;BME280;37452;51.938;4.624;2023-04-27T08:22:26;77903.16;;;-142.75;88.35
41632;BME280;37452;51.938;4.624;2023-04-27T08:24:51;77895.28;;;-142.75;86.62
41632;BME280;37452;51.938;4.624;2023-04-27T08:27:16;77869.69;;;-142.75;85.56
41632;BME280;37452;51.938;4.624;2023-04-27T08:29:45;77869.69;;;-142.75;84.26
41632;BME280;37452;51.938;4.624;2023-04-27T08:32:13;77869.69;;;-142.75;84.04
41632;BME280;37452;51.938;4.624;2023-04-27T08:34:38;77867.72;;;-142.75;84.35
41632;BME280;37452;51.938;4.624;2023-04-27T08:37:04;77861.81;;;-142.75;85.07
41632;BME280;37452;51.938;4.624;2023-04-27T08:39:29;77842.13;;;-142.75;87.86
41632;BME280;37452;51.938;4.624;2023-04-27T08:41:54;77875.59;;;-142.75;85.15
41632;BME280;37452;51.938;4.624;2023-04-27T08:44:19;77859.84;;;-142.75;84.50
41632;BME280;37452;51.938;4.624;2023-04-27T08:46:45;77853.94;;;-142.75;82.75
41632;BME280;37452;51.938;4.624;2023-04-27T08:49:10;77855.91;;;-142.75;82.76
41632;BME280;37452;51.938;4.624;2023-04-27T08:51:36;77844.09;;;-142.75;85.71
41632;BME280;37452;51.938;4.624;2023-04-27T08:54:01;77873.63;;;-142.75;82.60
41632;BME280;37452;51.938;4.624;2023-04-27T08:56:27;77863.78;;;-142.75;83.33
41632;BME280;37452;51.938;4.624;2023-04-27T08:58:53;77863.78;;;-142.75;81.84
41632;BME280;37452;51.938;4.624;2023-04-27T09:01:20;77865.75;;;-142.75;79.78
41632;BME280;37452;51.938;4.624;2023-04-27T09:03:45;77846.06;;;-142.75;79.70
41632;BME280;37452;51.938;4.624;2023-04-27T09:06:11;77857.88;;;-142.75;81.48
41632;BME280;37452;51.938;4.624;2023-04-27T09:08:55;77838.19;;;-142.75;81.90
41632;BME280;37452;51.938;4.624;2023-04-27T09:11:33;77790.94;;;-142.75;80.72
41632;BME280;37452;51.938;4.624;2023-04-27T09:13:59;77818.50;;;-142.75;80.08
41632;BME280;37452;51.938;4.624;2023-04-27T09:16:25;77806.69;;;-142.75;81.20
41632;BME280;37452;51.938;4.624;2023-04-27T09:18:52;77822.44;;;-142.75;80.30
41632;BME280;37452;51.938;4.624;2023-04-27T09:21:20;77830.31;;;-142.75;81.20
41632;BME280;37452;51.938;4.624;2023-04-27T09:23:46;77810.63;;;-142.75;82.11
41632;BME280;37452;51.938;4.624;2023-04-27T09:26:17;77771.25;;;-142.75;82.38
41632;BME280;37452;51.938;4.624;2023-04-27T09:28:46;77731.88;;;-142.75;81.10
41632;BME280;37452;51.938;4.624;2023-04-27T09:31:12;77700.34;;;-142.75;78.79
41632;BME280;37452;51.938;4.624;2023-04-27T09:33:37;77720.03;;;-142.75;78.05
41632;BME280;37452;51.938;4.624;2023-04-27T09:36:03;77694.44;;;-142.75;77.29
41632;BME280;37452;51.938;4.624;2023-04-27T09:38:29;77704.28;;;-142.75;77.43
41632;BME280;37452;51.938;4.624;2023-04-27T09:40:55;77712.16;;;-142.75;78.17
41632;BME280;37452;51.938;4.624;2023-04-27T09:43:20;77676.72;;;-142.75;76.91
41632;BME280;37452;51.938;4.624;2023-04-27T09:45:47;77662.94;;;-142.75;77.86
41632;BME280;37452;51.938;4.624;2023-04-27T09:48:12;77625.53;;;-142.75;79.01
41632;BME280;37452;51.938;4.624;2023-04-27T09:50:39;77637.34;;;-142.75;75.05
41632;BME280;37452;51.938;4.624;2023-04-27T09:53:05;77647.19;;;-142.75;72.76
41632;BME280;37452;51.938;4.624;2023-04-27T09:55:34;77625.53;;;-142.75;75.82
41632;BME280;37452;51.938;4.624;2023-04-27T09:58:23;77621.59;;;-142.75;74.41
41632;BME280;37452;51.938;4.624;2023-04-27T10:03:31;77578.28;;;-142.75;72.70
41632;BME280;37452;51.938;4.624;2023-04-27T10:08:41;77503.47;;;-142.75;74.72
41632;BME280;37452;51.938;4.624;2023-04-27T10:11:13;77471.97;;;-142.75;73.21
41632;BME280;37452;51.938;4.624;2023-04-27T10:13:49;77468.03;;;-142.75;71.26
41632;BME280;37452;51.938;4.624;2023-04-27T10:16:14;77473.94;;;-142.75;68.38
41632;BME280;37452;51.938;4.624;2023-04-27T10:18:49;77460.13;;;-142.75;68.53
41632;BME280;37452;51.938;4.624;2023-04-27T10:21:14;77485.75;;;-142.75;68.23
41632;BME280;37452;51.938;4.624;2023-04-27T10:23:50;77473.94;;;-142.75;66.05
41632;BME280;37452;51.938;4.624;2023-04-27T10:26:25;77462.13;;;-142.75;64.84
41632;BME280;37452;51.938;4.624;2023-04-27T10:28:57;77470.00;;;-142.75;65.31
41632;BME280;37452;51.938;4.624;2023-04-27T10:31:27;77468.03;;;-142.75;66.65
41632;BME280;37452;51.938;4.624;2023-04-27T10:33:53;77468.03;;;-142.75;64.28
41632;BME280;37452;51.938;4.624;2023-04-27T10:36:33;77464.09;;;-142.75;63.42
41632;BME280;37452;51.938;4.624;2023-04-27T10:38:58;77436.50;;;-142.75;64.47
41632;BME280;37452;51.938;4.624;2023-04-27T10:41:32;77405.00;;;-142.75;64.27
41632;BME280;37452;51.938;4.624;2023-04-27T10:44:11;77387.28;;;-142.75;65.34
41632;BME280;37452;51.938;4.624;2023-04-27T10:46:48;77361.69;;;-142.75;64.37
41632;BME280;37452;51.938;4.624;2023-04-27T10:49:13;77294.75;;;-142.75;65.36
41632;BME280;37452;51.938;4.624;2023-04-27T10:51:39;77397.13;;;-142.75;61.72
41632;BME280;37452;51.938;4.624;2023-04-27T10:54:05;77397.13;;;-142.75;61.87
41632;BME280;37452;51.938;4.624;2023-04-27T10:56:31;77422.72;;;-142.75;59.01
41632;BME280;37452;51.938;4.624;2023-04-27T10:59:00;77377.44;;;-142.75;60.65
41632;BME280;37452;51.938;4.624;2023-04-27T11:01:26;77316.41;;;-142.75;62.50
41632;BME280;37452;51.938;4.624;2023-04-27T11:03:54;77308.53;;;-142.75;61.40
41632;BME280;37452;51.938;4.624;2023-04-27T11:06:19;77273.09;;;-142.75;58.79
41632;BME280;37452;51.938;4.624;2023-04-27T11:08:44;77286.88;;;-142.75;56.26
41632;BME280;37452;51.938;4.624;2023-04-27T11:11:12;77310.50;;;-142.75;55.75
41632;BME280;37452;51.938;4.624;2023-04-27T11:13:38;77282.94;;;-142.75;55.23
41632;BME280;37452;51.938;4.624;2023-04-27T11:16:03;77318.38;;;-142.75;54.04
41632;BME280;37452;51.938;4.624;2023-04-27T11:18:29;77351.84;;;-142.75;53.84
41632;BME280;37452;51.938;4.624;2023-04-27T11:21:08;77369.56;;;-142.75;53.22
41632;BME280;37452;51.938;4.624;2023-04-27T11:23:34;77318.38;;;-142.75;57.82
41632;BME280;37452;51.938;4.624;2023-04-27T11:26:09;77312.47;;;-142.75;56.30
41632;BME280;37452;51.938;4.624;2023-04-27T11:28:35;77273.09;;;-142.75;57.13
41632;BME280;37452;51.938;4.624;2023-04-27T11:31:00;77216.00;;;-142.75;58.86
41632;BME280;37452;51.938;4.624;2023-04-27T11:33:26;77225.84;;;-142.75;55.06
41632;BME280;37452;51.938;4.624;2023-04-27T11:35:51;77239.63;;;-142.75;53.29
41632;BME280;37452;51.938;4.624;2023-04-27T11:38:17;77214.03;;;-142.75;54.26
41632;BME280;37452;51.938;4.624;2023-04-27T11:40:43;77180.56;;;-142.75;57.57
41632;BME280;37452;51.938;4.624;2023-04-27T11:43:11;77168.75;;;-142.75;54.60
41632;BME280;37452;51.938;4.624;2023-04-27T11:45:36;77178.59;;;-142.75;54.08
41632;BME280;37452;51.938;4.624;2023-04-27T11:48:05;77188.44;;;-142.75;56.23
41632;BME280;37452;51.938;4.624;2023-04-27T11:50:31;77243.56;;;-142.75;53.00
41632;BME280;37452;51.938;4.624;2023-04-27T11:52:59;77233.72;;;-142.75;52.12
41632;BME280;37452;51.938;4.624;2023-04-27T11:55:24;77186.47;;;-142.75;54.01
41632;BME280;37452;51.938;4.624;2023-04-27T11:57:54;77141.19;;;-142.75;54.50
41632;BME280;37452;51.938;4.624;2023-04-27T12:00:20;77154.97;;;-142.75;53.63
41632;BME280;37452;51.938;4.624;2023-04-27T12:02:45;77180.56;;;-142.75;51.64
41632;BME280;37452;51.938;4.624;2023-04-27T12:05:10;77286.88;;;-142.75;50.56
41632;BME280;37452;51.938;4.624;2023-04-27T12:07:36;77282.94;;;-142.75;52.85
41632;BME280;37452;51.938;4.624;2023-04-27T12:10:02;77259.31;;;-142.75;53.45
41632;BME280;37452;51.938;4.624;2023-04-27T12:12:27;77306.56;;;-142.75;54.96
41632;BME280;37452;51.938;4.624;2023-04-27T12:14:52;77343.97;;;-142.75;58.38
41632;BME280;37452;51.938;4.624;2023-04-27T12:17:17;77338.06;;;-142.75;58.44
41632;BME280;37452;51.938;4.624;2023-04-27T12:19:43;77338.06;;;-142.75;55.08
41632;BME280;37452;51.938;4.624;2023-04-27T12:22:08;77343.97;;;-142.75;54.57
41632;BME280;37452;51.938;4.624;2023-04-27T12:24:34;77363.66;;;-142.75;51.27
41632;BME280;37452;51.938;4.624;2023-04-27T12:27:00;77318.38;;;-142.75;53.11
41632;BME280;37452;51.938;4.624;2023-04-27T12:29:25;77310.50;;;-142.75;55.07
41632;BME280;37452;51.938;4.624;2023-04-27T12:31:50;77267.19;;;-142.75;56.50